Change the Weather History Date:

Thursday, March 6, 2014

  Actual Average Record
Temperature  
Mean Temperature 18 °F -  
Max Temperature 24 °F 29 °F 68 °F (2005)
Min Temperature 12 °F 14 °F 3 °F (1997)
Degree Days  
Heating Degree Days 47    
Moisture  
Dew Point 15 °F    
Average Humidity 87    
Maximum Humidity 93    
Minimum Humidity 73    
Precipitation  
Precipitation 0.00 in - - ()
Sea Level Pressure  
Sea Level Pressure 30.06 in    
Wind  
Wind Speed 13 mph (SSE)    
Max Wind Speed 22 mph    
Max Gust Speed 30 mph    
Visibility 7 miles    
Events      
Averages and records for this station are not official NWS values.
T = Trace of Precipitation, MM = Missing Value Source: NWS Daily Summary

Daily Weather History Graph

Daily Weather History Graph

Search for Another Location

Airport or City:

Trip Planner

Search our weather history database for the weather conditions in past years. The results will help you decide how hot, cold, wet, or windy it might be!

Date:

Astronomy

Mar. 06, 2014 Rise Set
Actual Time 6:41 AM CST 6:08 PM CST
Civil Twilight 6:12 AM CST 6:37 PM CST
Nautical Twilight 5:39 AM CST 7:10 PM CST
Astronomical Twilight 5:06 AM CST 7:44 PM CST
Moon 9:39 AM CST (3/6) No Moon Set
Length of Visible Light 12h 24m
Length of Day
11h 27m
Waxing Crescent, 32% of the Moon is Illuminated
Mar 6
Waxing Crescent
Mar 8
First Quarter
Mar 16
Full
Mar 23
Last Quarter
Mar 30
New

Hourly Weather History & Observations

Time (CST) Temp. Windchill Dew Point Humidity Pressure Visibility Wind Dir Wind Speed Gust Speed Precip Events Conditions
12:11 AM 15.8 °F 3.4 °F 10.4 °F 79% 30.31 in 10.0 mi SSE 10.4 mph - N/A   Clear
12:31 AM 15.8 °F 4.2 °F 8.6 °F 73% 30.31 in 10.0 mi SSE 9.2 mph - N/A   Clear
12:50 AM 12.2 °F 2.9 °F 8.6 °F 85% 30.31 in 10.0 mi SSE 5.8 mph - N/A   Clear
1:11 AM 12.2 °F -0.2 °F 8.6 °F 85% 30.31 in 10.0 mi SSE 9.2 mph - N/A   Clear
1:31 AM 12.2 °F -1.0 °F 8.6 °F 85% 30.30 in 10.0 mi SSE 10.4 mph - N/A   Scattered Clouds
1:51 AM 14.0 °F -0.2 °F 8.6 °F 79% 30.28 in 10.0 mi SSE 12.7 mph - N/A   Overcast
2:11 AM 15.8 °F 2.7 °F 8.6 °F 73% 30.27 in 10.0 mi SSE 11.5 mph 17.3 mph N/A   Overcast
2:31 AM 15.8 °F 2.7 °F 10.4 °F 79% 30.27 in 10.0 mi SSE 11.5 mph 16.1 mph N/A   Overcast
2:51 AM 15.8 °F 2.1 °F 10.4 °F 79% 30.26 in 10.0 mi SSE 12.7 mph - N/A   Overcast
3:11 AM 15.8 °F 1.4 °F 10.4 °F 79% 30.25 in 10.0 mi SSE 13.8 mph - N/A   Overcast
3:31 AM 15.8 °F 1.4 °F 10.4 °F 79% 30.25 in 10.0 mi SSE 13.8 mph - N/A   Overcast
3:51 AM 15.8 °F 4.2 °F 10.4 °F 79% 30.25 in 10.0 mi SSE 9.2 mph - N/A   Overcast
4:11 AM 15.8 °F 2.1 °F 10.4 °F 79% 30.24 in 10.0 mi SSE 12.7 mph - N/A   Overcast
4:31 AM 15.8 °F 3.4 °F 10.4 °F 79% 30.24 in 10.0 mi SSE 10.4 mph 16.1 mph N/A   Overcast
4:51 AM 15.8 °F 3.4 °F 10.4 °F 79% 30.24 in 10.0 mi SSE 10.4 mph - N/A   Overcast
5:11 AM 15.8 °F 3.4 °F 10.4 °F 79% 30.24 in 10.0 mi SSE 10.4 mph - N/A   Overcast
5:31 AM 15.8 °F 2.7 °F 12.2 °F 86% 30.23 in 10.0 mi SSE 11.5 mph - N/A   Overcast
5:51 AM 15.8 °F 3.4 °F 10.4 °F 79% 30.22 in 10.0 mi SSE 10.4 mph - N/A   Mostly Cloudy
6:11 AM 15.8 °F 2.7 °F 10.4 °F 79% 30.21 in 10.0 mi SSE 11.5 mph - N/A   Scattered Clouds
6:31 AM 15.8 °F 3.4 °F 10.4 °F 79% 30.20 in 10.0 mi SSE 10.4 mph - N/A   Clear
6:51 AM 15.8 °F 2.7 °F 10.4 °F 79% 30.20 in 10.0 mi South 11.5 mph - N/A   Clear
7:11 AM 15.8 °F 2.1 °F 10.4 °F 79% 30.18 in 10.0 mi SSE 12.7 mph - N/A   Clear
7:31 AM 15.8 °F 2.1 °F 10.4 °F 79% 30.17 in 10.0 mi SSE 12.7 mph - N/A   Clear
7:51 AM 15.8 °F 1.4 °F 12.2 °F 86% 30.17 in 10.0 mi SSE 13.8 mph - N/A   Clear
8:11 AM 15.8 °F -0.6 °F 12.2 °F 86% 30.16 in 10.0 mi SSE 18.4 mph 24.2 mph N/A   Clear
8:31 AM 15.8 °F 1.4 °F 12.2 °F 86% 30.16 in 10.0 mi South 13.8 mph 21.9 mph N/A   Clear
8:51 AM 17.6 °F 3.2 °F 12.2 °F 79% 30.15 in 10.0 mi South 15.0 mph 21.9 mph N/A   Clear
9:11 AM 17.6 °F 4.3 °F 12.2 °F 79% 30.15 in 10.0 mi South 12.7 mph 16.1 mph N/A   Clear
9:31 AM 17.6 °F 3.2 °F 14.0 °F 86% 30.13 in 10.0 mi SSE 15.0 mph 21.9 mph N/A   Clear
9:51 AM 17.6 °F 2.7 °F 14.0 °F 86% 30.14 in 10.0 mi South 16.1 mph 24.2 mph N/A   Scattered Clouds
10:11 AM 19.4 °F 5.5 °F 15.8 °F 86% 30.12 in 10.0 mi South 15.0 mph 23.0 mph N/A   Scattered Clouds
10:31 AM 19.4 °F 5.5 °F 15.8 °F 86% 30.12 in 7.0 mi South 15.0 mph 21.9 mph N/A   Scattered Clouds
10:51 AM 19.4 °F 7.2 °F 15.8 °F 86% 30.12 in 10.0 mi SSE 11.5 mph 19.6 mph N/A   Clear
11:11 AM 19.4 °F 7.2 °F 15.8 °F 86% 30.12 in 10.0 mi South 11.5 mph 16.1 mph N/A   Clear
11:31 AM 19.4 °F 7.2 °F 15.8 °F 86% 30.11 in 7.0 mi South 11.5 mph - N/A   Clear
11:51 AM 19.4 °F 5.0 °F 15.8 °F 86% 30.10 in 7.0 mi SSE 16.1 mph - N/A   Clear
12:11 PM 19.4 °F 4.1 °F 17.6 °F 93% 30.08 in 7.0 mi SSE 18.4 mph - N/A   Clear
12:31 PM 19.4 °F 3.6 °F 17.6 °F 93% 30.06 in 7.0 mi SSE 19.6 mph - N/A   Clear
12:51 PM 21.2 °F 6.8 °F 17.6 °F 86% 30.05 in 5.0 mi SSE 17.3 mph 25.3 mph N/A   Clear
1:10 PM 21.2 °F 6.4 °F 17.6 °F 86% 30.04 in 5.0 mi SSE 18.4 mph 23.0 mph N/A   Clear
1:31 PM 21.2 °F 7.8 °F 17.6 °F 86% 30.03 in 5.0 mi SSE 15.0 mph 23.0 mph N/A   Clear
1:51 PM 21.2 °F 6.4 °F 17.6 °F 86% 30.01 in 4.0 mi South 18.4 mph 23.0 mph N/A   Scattered Clouds
2:10 PM 21.2 °F 7.8 °F 19.4 °F 93% 30.00 in 4.0 mi SSE 15.0 mph 27.6 mph N/A   Scattered Clouds
2:31 PM 21.2 °F 6.4 °F 19.4 °F 93% 29.99 in 4.0 mi SSE 18.4 mph 27.6 mph N/A   Scattered Clouds
2:51 PM 21.2 °F 5.2 °F 19.4 °F 93% 29.98 in 3.0 mi SSE 21.9 mph 27.6 mph N/A   Scattered Clouds
3:10 PM 21.2 °F 7.8 °F 19.4 °F 93% 29.98 in 4.0 mi South 15.0 mph 27.6 mph N/A   Scattered Clouds
3:31 PM 21.2 °F 6.0 °F 19.4 °F 93% 29.96 in 3.0 mi SSE 19.6 mph 25.3 mph N/A   Scattered Clouds
3:51 PM 21.2 °F 6.8 °F 19.4 °F 93% 29.95 in 4.0 mi SSE 17.3 mph 21.9 mph N/A   Scattered Clouds
4:10 PM 21.2 °F 5.6 °F 19.4 °F 93% 29.94 in 4.0 mi SSE 20.7 mph 25.3 mph N/A   Clear
4:31 PM 21.2 °F 5.2 °F 19.4 °F 93% 29.91 in 4.0 mi SSE 21.9 mph 28.8 mph N/A   Clear
4:51 PM 21.2 °F 5.2 °F 19.4 °F 93% 29.90 in 4.0 mi SSE 21.9 mph 28.8 mph N/A   Clear
5:11 PM 21.2 °F 5.2 °F 19.4 °F 93% 29.88 in 4.0 mi SSE 21.9 mph 27.6 mph N/A   Clear
5:31 PM 21.2 °F 5.2 °F 19.4 °F 93% 29.88 in 4.0 mi SSE 21.9 mph 28.8 mph N/A   Clear
5:51 PM 21.2 °F 5.6 °F 19.4 °F 93% 29.88 in 4.0 mi SSE 20.7 mph 29.9 mph N/A   Clear
6:11 PM 21.2 °F 6.4 °F 19.4 °F 93% 29.87 in 5.0 mi South 18.4 mph 25.3 mph N/A   Clear
6:31 PM 21.2 °F 6.8 °F 19.4 °F 93% 29.88 in 7.0 mi SSE 17.3 mph 24.2 mph N/A   Clear
6:51 PM 21.2 °F 6.4 °F 19.4 °F 93% 29.88 in 7.0 mi SSE 18.4 mph 24.2 mph N/A   Clear
7:11 PM 21.2 °F 8.3 °F 19.4 °F 93% 29.88 in 7.0 mi SSE 13.8 mph 20.7 mph N/A   Clear
7:31 PM 21.2 °F 8.3 °F 19.4 °F 93% 29.89 in 7.0 mi SSE 13.8 mph - N/A   Clear
7:51 PM 21.2 °F 10.1 °F 19.4 °F 93% 29.89 in 7.0 mi SSE 10.4 mph - N/A   Clear
8:11 PM 21.2 °F 8.3 °F 19.4 °F 93% 29.87 in 7.0 mi South 13.8 mph 17.3 mph N/A   Clear
8:31 PM 21.2 °F 10.9 °F 19.4 °F 93% 29.87 in 5.0 mi South 9.2 mph - N/A   Clear
8:51 PM 21.2 °F 11.7 °F 19.4 °F 93% 29.87 in 5.0 mi SSE 8.1 mph - N/A   Clear
9:11 PM 21.2 °F 10.1 °F 19.4 °F 93% 29.87 in 5.0 mi South 10.4 mph - N/A   Clear
9:31 PM 21.2 °F 10.1 °F 19.4 °F 93% 29.86 in 5.0 mi SSE 10.4 mph - N/A   Clear
9:51 PM 21.2 °F 10.1 °F 19.4 °F 93% 29.85 in 5.0 mi South 10.4 mph - N/A   Clear
10:11 PM 21.2 °F 9.5 °F 19.4 °F 93% 29.84 in 5.0 mi South 11.5 mph - N/A   Clear
10:30 PM 23.0 °F 11.1 °F 21.2 °F 93% 29.84 in 5.0 mi South 12.7 mph - N/A   Clear
10:51 PM 24.8 °F 14.6 °F 21.2 °F 86% 29.83 in 5.0 mi South 10.4 mph - N/A   Clear
11:10 PM 23.0 °F 13.9 °F 19.4 °F 86% 29.83 in 5.0 mi South 8.1 mph - N/A   Clear
11:31 PM 23.0 °F 13.1 °F 19.4 °F 86% 29.83 in 5.0 mi SSE 9.2 mph - N/A   Clear
11:51 PM 21.2 °F 10.9 °F 19.4 °F 93% 29.82 in 5.0 mi SSE 9.2 mph - N/A   Clear